Time;durP1;ratioP1;P1;durP2;ratioP2;P2;SDS_P1;SDS_P2;PMS_P1;PMS_P2;Temp;Humidity;BMP_temperature;BMP_pressure;BME280_temperature;BME280_humidity;BME280_pressure;Samples;Min_cycle;Max_cycle;Signal;HPM_P1;HPM_P2
2021/09/14 00:02:06;;;;;;;2.80;1.70;;;;;;;24.05;58.16;100658.09;1767784;79;21148;-47
2021/09/14 00:04:32;;;;;;;3.83;1.70;;;;;;;24.07;58.24;100659.92;1791639;77;21100;-49
2021/09/14 00:06:58;;;;;;;2.30;1.70;;;;;;;24.09;58.35;100657.05;1791198;77;20959;-47
2021/09/14 00:09:24;;;;;;;3.00;1.90;;;;;;;24.11;58.42;100658.08;1790810;79;21046;-47
2021/09/14 00:11:50;;;;;;;2.80;1.95;;;;;;;24.10;58.49;100653.70;1792609;78;20941;-50
2021/09/14 00:14:17;;;;;;;2.22;1.72;;;;;;;24.11;58.51;100647.77;1790632;79;21090;-47
2021/09/14 00:16:43;;;;;;;2.40;1.85;;;;;;;24.13;58.46;100649.65;1787775;79;21904;-48
2021/09/14 00:19:09;;;;;;;3.33;2.08;;;;;;;24.14;58.42;100648.47;1789691;77;21036;-48
2021/09/14 00:21:36;;;;;;;2.75;2.00;;;;;;;24.16;58.37;100652.91;1790954;78;21041;-49
2021/09/14 00:24:02;;;;;;;2.85;2.02;;;;;;;24.14;58.34;100648.47;1785762;79;21637;-48
2021/09/14 00:26:28;;;;;;;2.75;1.95;;;;;;;24.14;58.31;100645.69;1793283;77;21093;-48
2021/09/14 00:28:54;;;;;;;2.30;1.65;;;;;;;24.13;58.27;100651.61;1785579;79;21297;-48
2021/09/14 00:31:20;;;;;;;2.80;1.85;;;;;;;24.11;58.26;100647.77;1786757;78;21050;-50
2021/09/14 00:33:46;;;;;;;3.65;1.92;;;;;;;24.11;58.26;100657.50;1788686;79;21093;-46
2021/09/14 00:36:13;;;;;;;2.70;1.77;;;;;;;24.08;58.25;100646.27;1790239;77;21912;-48
2021/09/14 00:38:39;;;;;;;2.30;1.90;;;;;;;24.07;58.25;100651.02;1785660;77;21109;-48
2021/09/14 00:41:05;;;;;;;2.33;1.75;;;;;;;24.04;58.27;100654.49;1780753;78;21441;-47
2021/09/14 00:43:31;;;;;;;2.90;2.00;;;;;;;24.03;58.27;100649.27;1790005;79;20934;-50
2021/09/14 00:45:57;;;;;;;3.25;1.85;;;;;;;24.01;58.29;100652.41;1792658;77;21126;-46
2021/09/14 00:48:23;;;;;;;2.42;1.67;;;;;;;24.02;58.32;100654.01;1792498;79;21622;-49
2021/09/14 00:50:49;;;;;;;2.50;2.05;;;;;;;24.04;58.39;100660.05;1794043;77;20974;-47
2021/09/14 00:53:15;;;;;;;2.40;1.77;;;;;;;24.06;58.51;100661.11;1750855;80;21946;-48
2021/09/14 00:55:41;;;;;;;3.85;2.00;;;;;;;24.08;58.63;100661.56;1778327;79;21078;-49
2021/09/14 00:58:07;;;;;;;3.20;2.22;;;;;;;24.10;58.73;100667.59;1775421;79;21071;-48
2021/09/14 01:00:33;;;;;;;2.85;2.12;;;;;;;24.13;58.73;100668.29;1768928;79;21485;-48
2021/09/14 01:03:00;;;;;;;2.40;1.90;;;;;;;24.14;58.73;100664.36;1774075;79;21112;-48
2021/09/14 01:05:26;;;;;;;2.95;2.10;;;;;;;24.16;58.68;100666.23;1771969;79;21316;-46
2021/09/14 01:07:52;;;;;;;2.65;1.98;;;;;;;24.17;58.59;100672.03;1768028;79;21354;-47
2021/09/14 01:10:18;;;;;;;3.20;2.12;;;;;;;24.18;58.54;100668.68;1788084;78;21019;-50
2021/09/14 01:12:44;;;;;;;3.15;2.17;;;;;;;24.17;58.50;100669.83;1787067;78;21686;-47
2021/09/14 01:15:11;;;;;;;3.77;2.35;;;;;;;24.17;58.45;100675.39;1792209;78;20975;-47
2021/09/14 01:17:37;;;;;;;2.70;2.00;;;;;;;24.16;58.42;100681.52;1793252;77;21116;-47
2021/09/14 01:20:04;;;;;;;2.72;1.85;;;;;;;24.14;58.38;100674.09;1792921;78;20891;-50
2021/09/14 01:22:31;;;;;;;2.85;2.27;;;;;;;24.10;58.36;100668.98;1791484;78;21093;-47
2021/09/14 01:24:58;;;;;;;3.35;2.00;;;;;;;24.09;58.35;100675.13;1795938;79;21823;-46
2021/09/14 01:27:25;;;;;;;3.08;2.00;;;;;;;24.07;58.35;100675.22;1792640;78;21502;-49
2021/09/14 01:32:35;;;;;;;3.62;2.35;;;;;;;24.03;58.38;100677.06;1795476;79;20988;-47
2021/09/14 01:35:12;;;;;;;2.92;1.95;;;;;;;24.01;58.40;100676.61;1798343;77;21002;-47
2021/09/14 01:37:38;;;;;;;2.92;2.30;;;;;;;23.98;58.42;100675.88;1793326;77;21148;-47
2021/09/14 01:40:06;;;;;;;2.52;1.85;;;;;;;23.96;58.44;100678.21;1789685;77;21125;-47
2021/09/14 01:42:32;;;;;;;2.65;1.90;;;;;;;23.96;58.47;100682.38;1766207;79;21091;-47
2021/09/14 01:44:58;;;;;;;3.27;2.10;;;;;;;23.98;58.56;100680.05;1788078;78;21622;-50
2021/09/14 01:47:24;;;;;;;3.67;2.20;;;;;;;24.00;58.70;100684.13;1790192;78;21047;-46
2021/09/14 01:49:50;;;;;;;3.35;2.08;;;;;;;24.02;58.80;100690.71;1789088;79;21512;-47
2021/09/14 01:52:16;;;;;;;2.75;1.72;;;;;;;24.03;58.85;100688.98;1788259;79;21091;-47
2021/09/14 01:54:42;;;;;;;3.12;1.80;;;;;;;24.06;58.84;100691.68;1789439;77;21203;-48
2021/09/14 01:57:09;;;;;;;2.98;2.10;;;;;;;24.07;58.82;100688.53;1791526;78;21043;-47
2021/09/14 01:59:38;;;;;;;3.20;1.95;;;;;;;24.08;58.76;100696.30;1787362;79;21505;-47
2021/09/14 03:01:08;;;;;;;3.22;2.30;;;;;;;23.93;58.80;100701.13;1795455;77;21946;-48
2021/09/14 03:03:38;;;;;;;3.55;2.37;;;;;;;23.91;58.77;100703.42;1794560;77;21055;-49
2021/09/14 03:06:04;;;;;;;4.40;2.50;;;;;;;23.88;58.79;100699.95;1793948;78;21185;-47
2021/09/14 03:08:32;;;;;;;3.00;1.87;;;;;;;23.87;58.80;100706.66;1787354;79;20960;-47
2021/09/14 03:11:08;;;;;;;2.55;2.05;;;;;;;23.84;58.83;100702.61;1784927;79;21109;-47
2021/09/14 03:13:36;;;;;;;2.17;1.70;;;;;;;23.83;58.85;100712.66;1791608;78;21093;-48
2021/09/14 03:16:06;;;;;;;2.67;1.90;;;;;;;23.84;58.89;100714.30;1778319;79;21041;-47
2021/09/14 03:18:32;;;;;;;3.02;1.77;;;;;;;23.85;58.99;100714.54;1792506;77;20923;-51
2021/09/14 03:20:58;;;;;;;2.25;1.72;;;;;;;23.86;59.11;100719.73;1793813;79;20999;-47
2021/09/14 03:23:24;;;;;;;2.75;1.90;;;;;;;23.87;59.20;100726.11;1778738;78;21203;-48
2021/09/14 03:25:50;;;;;;;3.40;1.80;;;;;;;23.88;59.26;100722.18;1785878;79;21253;-47
2021/09/14 03:28:16;;;;;;;2.87;2.20;;;;;;;23.91;59.24;100724.27;1795603;79;21563;-47
2021/09/14 03:30:44;;;;;;;2.67;1.85;;;;;;;23.92;59.21;100721.73;1780782;79;21077;-47
2021/09/14 03:33:10;;;;;;;2.70;2.00;;;;;;;23.93;59.16;100729.70;1783506;79;21069;-50
2021/09/14 03:35:37;;;;;;;2.42;2.10;;;;;;;23.93;59.12;100732.48;1785077;79;20955;-49
2021/09/14 03:38:03;;;;;;;2.90;2.12;;;;;;;23.93;59.07;100733.88;1789831;78;23173;-48
2021/09/14 03:40:30;;;;;;;2.15;1.70;;;;;;;23.92;59.03;100732.27;1795354;79;21030;-49
2021/09/14 03:42:56;;;;;;;2.85;2.08;;;;;;;23.91;58.99;100734.81;1769590;78;21039;-47
2021/09/14 03:45:22;;;;;;;2.92;1.85;;;;;;;23.91;58.98;100733.99;1792824;78;21073;-50
2021/09/14 03:47:48;;;;;;;2.67;2.10;;;;;;;23.88;58.94;100736.08;1780477;79;21490;-47
2021/09/14 03:50:14;;;;;;;2.85;2.22;;;;;;;23.87;58.94;100740.00;1790954;78;23250;-49
2021/09/14 03:52:40;;;;;;;2.98;1.90;;;;;;;23.85;58.94;100743.11;1793218;79;21089;-48
2021/09/14 03:55:08;;;;;;;2.15;1.85;;;;;;;23.83;58.95;100746.82;1784992;79;21457;-47
2021/09/14 03:57:34;;;;;;;2.33;1.80;;;;;;;23.82;58.95;100743.80;1782254;79;21054;-47
2021/09/14 04:00:00;;;;;;;2.52;1.80;;;;;;;23.80;58.95;100750.29;1780079;79;21486;-47
2021/09/14 04:05:26;;;;;;;2.10;1.52;;;;;;;23.82;59.04;100754.91;1789999;78;21078;-47
2021/09/14 04:07:49;;;;;;;2.70;2.25;;;;;;;23.83;59.15;100753.77;1783640;78;21121;-46
2021/09/14 04:10:06;;;;;;;3.50;1.72;;;;;;;23.84;59.23;100753.19;1785145;78;21502;-44
2021/09/14 04:12:33;;;;;;;2.87;2.08;;;;;;;23.86;59.28;100755.04;1788978;78;20986;-45
2021/09/14 04:14:59;;;;;;;2.60;1.95;;;;;;;23.87;59.28;100753.32;1788720;78;22119;-44
2021/09/14 04:17:25;;;;;;;4.25;1.87;;;;;;;23.88;59.25;100756.34;1788089;78;20990;-45
2021/09/14 04:19:51;;;;;;;2.75;1.85;;;;;;;23.90;59.19;100751.81;1789039;78;21052;-43
2021/09/14 04:22:17;;;;;;;2.70;2.02;;;;;;;23.90;59.15;100751.23;1786545;78;20896;-47
2021/09/14 04:24:43;;;;;;;3.17;2.10;;;;;;;23.91;59.10;100756.22;1788501;78;21074;-45
2021/09/14 04:27:11;;;;;;;1.77;1.62;;;;;;;23.91;59.08;100756.22;1781819;78;21159;-45
2021/09/14 04:29:37;;;;;;;36.40;9.63;;;;;;;23.88;59.04;100756.91;1784688;80;21018;-45
2021/09/14 04:32:04;;;;;;;21.33;7.33;;;;;;;23.86;59.02;100759.20;1780272;78;20908;-44
2021/09/14 04:34:30;;;;;;;126.58;33.53;;;;;;;23.84;59.01;100758.75;1785746;80;20978;-46
2021/09/14 04:36:58;;;;;;;25.60;6.22;;;;;;;23.82;59.03;100757.69;1785409;78;21086;-50
2021/09/14 04:39:24;;;;;;;29.72;8.53;;;;;;;23.81;59.07;100759.41;1787160;78;21109;-58
2021/09/14 04:41:50;;;;;;;12.37;4.17;;;;;;;23.81;59.10;100764.39;1791990;78;20996;-47
2021/09/14 04:44:18;;;;;;;69.97;23.70;;;;;;;23.84;59.14;100765.13;1785325;78;22624;-53
2021/09/14 04:46:45;;;;;;;140.62;36.23;;;;;;;23.87;59.22;100766.39;1787556;78;21036;-49
2021/09/14 04:49:11;;;;;;;85.32;22.30;;;;;;;23.91;59.46;100771.51;1787857;78;21051;-56
2021/09/14 04:51:40;;;;;;;78.07;22.42;;;;;;;23.95;59.64;100772.45;1783552;78;22326;-48
2021/09/14 04:54:07;;;;;;;213.72;58.83;;;;;;;23.99;59.79;100777.56;1784553;78;20995;-53
2021/09/14 04:56:33;;;;;;;269.52;75.17;;;;;;;24.02;59.88;100778.25;1781609;79;21153;-50
2021/09/14 04:58:59;;;;;;;241.97;66.10;;;;;;;24.06;59.94;100784.19;1787117;78;21504;-52
2021/09/14 05:01:25;;;;;;;495.10;201.95;;;;;;;24.09;60.05;100792.44;1784434;78;21094;-49
2021/09/14 05:03:51;;;;;;;428.73;153.82;;;;;;;24.11;60.18;100787.33;1785732;78;21290;-51
2021/09/14 05:06:17;;;;;;;289.68;91.75;;;;;;;24.14;60.29;100789.45;1782972;78;21535;-56
2021/09/14 05:08:43;;;;;;;146.82;44.00;;;;;;;24.14;60.32;100790.84;1794107;79;21081;-54
2021/09/14 05:11:09;;;;;;;351.05;118.22;;;;;;;24.13;60.31;100792.80;1790718;77;20879;-54
2021/09/14 05:13:39;;;;;;;583.33;245.78;;;;;;;24.13;60.29;100794.19;1792053;78;21509;-53
2021/09/14 05:16:05;;;;;;;449.85;151.97;;;;;;;24.13;60.29;100798.36;1789149;79;21094;-49
2021/09/14 05:18:31;;;;;;;224.35;61.80;;;;;;;24.13;60.27;100794.77;1788065;79;21061;-52
2021/09/14 05:20:58;;;;;;;115.95;31.42;;;;;;;24.15;60.28;100799.42;1795163;79;21010;-53
2021/09/14 05:23:30;;;;;;;49.38;13.15;;;;;;;24.18;60.33;100803.50;1789942;78;21046;-49
2021/09/14 05:26:03;;;;;;;22.00;6.25;;;;;;;24.17;60.39;100805.47;1786864;78;21101;-49
2021/09/14 05:28:31;;;;;;;13.32;4.55;;;;;;;24.18;60.38;100800.15;1795453;78;21852;-52
2021/09/14 05:30:57;;;;;;;7.70;2.87;;;;;;;24.19;60.31;100806.52;1788773;78;21884;-49
2021/09/14 05:33:23;;;;;;;6.55;2.75;;;;;;;24.20;60.23;100809.52;1750121;79;21040;-51
2021/09/14 05:35:52;;;;;;;2.98;2.00;;;;;;;24.19;60.13;100807.31;1790255;78;21484;-47
2021/09/14 05:38:21;;;;;;;3.92;2.10;;;;;;;24.18;60.04;100802.93;1793609;78;36892;-51
2021/09/14 05:40:49;;;;;;;4.05;1.90;;;;;;;24.18;59.94;100809.06;1788499;79;20908;-52
2021/09/14 05:43:15;;;;;;;2.35;1.90;;;;;;;24.14;59.88;100805.52;1794770;78;22194;-52
2021/09/14 05:45:41;;;;;;;2.70;1.75;;;;;;;24.13;59.81;100809.48;1794501;78;21084;-52
2021/09/14 05:48:08;;;;;;;3.08;1.95;;;;;;;24.11;59.76;100810.38;1794711;79;20999;-51
2021/09/14 05:50:34;;;;;;;2.77;1.67;;;;;;;24.09;59.73;100810.50;1790793;79;21650;-52
2021/09/14 05:53:00;;;;;;;2.05;1.45;;;;;;;24.06;59.70;100813.37;1789474;79;21812;-52
2021/09/14 05:55:26;;;;;;;2.77;1.60;;;;;;;24.04;59.66;100812.09;1789297;79;21123;-49
2021/09/14 05:57:52;;;;;;;2.27;1.50;;;;;;;24.02;59.64;100817.98;1790039;78;21094;-49
2021/09/14 06:00:21;;;;;;;3.20;1.50;;;;;;;23.99;59.64;100815.08;1791686;79;20943;-50
2021/09/14 06:02:46;;;;;;;2.08;1.20;;;;;;;23.98;59.63;100810.09;1792446;78;21224;-51
2021/09/14 06:05:12;;;;;;;1.77;1.22;;;;;;;23.99;59.70;100806.16;1793239;78;21187;-51
2021/09/14 06:07:38;;;;;;;2.02;1.40;;;;;;;24.00;59.76;100809.19;1794294;78;21633;-52
2021/09/14 06:10:06;;;;;;;1.57;1.22;;;;;;;24.02;59.83;100816.59;1793237;78;21046;-52
2021/09/14 06:12:32;;;;;;;2.42;1.40;;;;;;;24.04;59.87;100820.43;1791691;78;21041;-51
2021/09/14 06:14:58;;;;;;;2.52;1.35;;;;;;;24.05;59.85;100820.67;1795223;79;21038;-50
2021/09/14 06:17:24;;;;;;;1.87;1.07;;;;;;;24.06;59.79;100823.09;1795800;78;21417;-51
2021/09/14 06:19:50;;;;;;;2.58;1.47;;;;;;;24.06;59.73;100823.70;1795576;79;21078;-51
2021/09/14 06:22:20;;;;;;;1.98;1.05;;;;;;;24.06;59.65;100820.92;1787122;78;21078;-52
2021/09/14 06:24:45;;;;;;;2.35;1.27;;;;;;;24.05;59.59;100818.71;1794741;79;21442;-51
2021/09/14 06:27:11;;;;;;;2.08;1.30;;;;;;;24.05;59.52;100826.23;1792756;79;21406;-50
2021/09/14 06:29:38;;;;;;;1.22;1.00;;;;;;;24.03;59.48;100824.36;1793897;79;21590;-52
2021/09/14 06:32:09;;;;;;;2.08;1.40;;;;;;;24.01;59.44;100828.07;1792798;79;21564;-52
2021/09/14 06:34:36;;;;;;;1.60;1.20;;;;;;;23.99;59.39;100828.97;1787003;79;21618;-54
2021/09/14 06:37:03;;;;;;;1.95;1.27;;;;;;;23.97;59.38;100826.55;1793570;78;21047;-51
2021/09/14 06:39:29;;;;;;;1.50;0.95;;;;;;;23.95;59.35;100830.23;1796842;78;21180;-52
2021/09/14 06:41:56;;;;;;;2.40;1.32;;;;;;;23.94;59.34;100836.12;1744216;80;21057;-51
2021/09/14 06:44:23;;;;;;;1.47;1.10;;;;;;;23.92;59.32;100834.27;1734475;80;21016;-52
2021/09/14 06:46:50;;;;;;;1.42;1.02;;;;;;;23.89;59.34;100839.91;1763930;79;21072;-52
2021/09/14 06:49:17;;;;;;;1.27;0.80;;;;;;;23.91;59.31;100836.80;1791499;79;21066;-49
2021/09/14 06:51:43;;;;;;;0.93;0.70;;;;;;;23.92;59.39;100832.88;1794730;78;21038;-51
2021/09/14 06:54:09;;;;;;;1.55;0.95;;;;;;;23.94;59.49;100843.06;1790849;79;21411;-51
2021/09/14 06:56:36;;;;;;;1.30;0.80;;;;;;;23.95;59.56;100842.73;1788596;79;21447;-51
2021/09/14 06:59:02;;;;;;;1.92;1.20;;;;;;;23.97;59.59;100845.19;1790970;79;21080;-52
2021/09/14 07:01:28;;;;;;;1.25;0.95;;;;;;;23.98;59.55;100844.02;1791913;78;21464;-51
2021/09/14 07:03:54;;;;;;;1.30;0.90;;;;;;;23.99;59.51;100838.13;1786189;78;21054;-50
2021/09/14 07:06:20;;;;;;;1.22;0.75;;;;;;;24.02;59.45;100843.56;1792747;78;21206;-51
2021/09/14 07:08:47;;;;;;;2.40;1.02;;;;;;;24.02;59.36;100843.56;1784281;79;21580;-48
2021/09/14 07:11:14;;;;;;;1.30;0.90;;;;;;;24.01;59.31;100846.95;1792940;79;21061;-50
2021/09/14 07:13:40;;;;;;;2.20;1.30;;;;;;;23.99;59.24;100840.91;1783366;79;21481;-51
2021/09/14 07:16:06;;;;;;;1.17;0.78;;;;;;;23.99;59.18;100852.59;1791708;79;20893;-50
2021/09/14 07:18:32;;;;;;;1.32;1.00;;;;;;;23.97;59.13;100845.19;1788604;79;21056;-52
2021/09/14 07:21:01;;;;;;;1.22;0.88;;;;;;;23.95;59.13;100845.52;1791583;79;21425;-51
2021/09/14 07:23:27;;;;;;;1.60;1.15;;;;;;;23.94;59.10;100851.40;1785414;79;21526;-52
2021/09/14 07:25:54;;;;;;;1.40;0.75;;;;;;;23.93;59.08;100851.97;1789011;79;20900;-52
2021/09/14 07:28:20;;;;;;;1.55;0.85;;;;;;;23.89;59.06;100851.63;1788885;79;21009;-51
2021/09/14 07:30:46;;;;;;;1.02;0.80;;;;;;;23.87;59.07;100850.57;1785478;79;21250;-51
2021/09/14 07:33:13;;;;;;;0.88;0.72;;;;;;;23.86;59.06;100851.72;1787341;79;21493;-51
2021/09/14 07:35:40;;;;;;;1.22;1.05;;;;;;;23.84;59.07;100852.64;1788162;79;21065;-52
2021/09/14 07:38:06;;;;;;;1.07;0.78;;;;;;;23.85;59.07;100851.47;1790806;79;21054;-50
2021/09/14 07:40:32;;;;;;;1.42;0.78;;;;;;;23.87;59.13;100851.14;1797634;78;21427;-51
2021/09/14 07:42:58;;;;;;;0.70;0.70;;;;;;;23.88;59.22;100854.16;1803034;78;21162;-51
2021/09/14 07:45:24;;;;;;;1.00;0.70;;;;;;;23.90;59.31;100855.44;1786009;79;21007;-47
2021/09/14 07:47:50;;;;;;;1.12;0.72;;;;;;;23.92;59.33;100860.67;1764776;79;21069;-51
2021/09/14 07:50:17;;;;;;;1.25;0.80;;;;;;;23.93;59.33;100858.92;1786256;78;21498;-52
2021/09/14 07:52:43;;;;;;;1.35;0.90;;;;;;;23.97;59.28;100864.64;1798871;78;21054;-50
2021/09/14 07:55:09;;;;;;;1.20;0.82;;;;;;;23.96;59.21;100858.27;1798248;78;21301;-48
2021/09/14 07:57:35;;;;;;;1.07;0.72;;;;;;;23.96;59.14;100861.05;1795359;78;21570;-51
2021/09/14 08:00:02;;;;;;;1.20;0.82;;;;;;;23.97;59.08;100860.47;1794245;78;20916;-52
2021/09/14 08:02:28;;;;;;;1.70;0.80;;;;;;;23.97;59.04;100859.90;1801176;78;21146;-53
2021/09/14 08:04:54;;;;;;;0.93;0.80;;;;;;;23.95;58.99;100854.42;1787354;78;21024;-52
2021/09/14 08:07:20;;;;;;;1.05;0.80;;;;;;;23.95;58.96;100856.63;1796887;78;21554;-53
2021/09/14 08:09:46;;;;;;;1.55;0.90;;;;;;;23.93;58.93;100851.97;1793355;78;21514;-51
2021/09/14 08:12:13;;;;;;;1.10;0.85;;;;;;;23.92;58.90;100849.55;1788660;78;21375;-50
2021/09/14 08:14:39;;;;;;;1.02;0.80;;;;;;;23.89;58.89;100848.25;1784207;79;21012;-51
2021/09/14 08:17:05;;;;;;;1.25;0.72;;;;;;;23.88;58.91;100846.65;1781424;79;21689;-52
2021/09/14 08:19:31;;;;;;;0.93;0.70;;;;;;;23.86;58.88;100850.33;1786349;78;21292;-52
2021/09/14 08:21:58;;;;;;;0.85;0.60;;;;;;;23.85;58.89;100847.30;1785088;79;21174;-49
2021/09/14 08:24:24;;;;;;;1.10;0.78;;;;;;;23.83;58.90;100842.67;1786990;79;21204;-49
2021/09/14 08:26:51;;;;;;;0.50;0.50;;;;;;;23.84;58.90;100842.10;1789924;79;21506;-52
2021/09/14 08:29:17;;;;;;;0.53;0.47;;;;;;;23.87;58.99;100844.20;1778947;79;21042;-48
2021/09/14 08:31:43;;;;;;;0.90;0.70;;;;;;;23.89;59.07;100839.12;1782656;79;21106;-49
2021/09/14 08:34:09;;;;;;;0.88;0.70;;;;;;;23.92;59.18;100845.39;1787639;79;21958;-49
2021/09/14 08:36:36;;;;;;;0.75;0.62;;;;;;;23.93;59.22;100839.47;1781952;79;20966;-50
2021/09/14 08:39:03;;;;;;;1.00;0.70;;;;;;;23.95;59.19;100841.34;1785703;78;21462;-51
2021/09/14 08:41:29;;;;;;;0.88;0.70;;;;;;;23.97;59.14;100841.02;1769937;80;21078;-50
2021/09/14 08:43:55;;;;;;;0.90;0.70;;;;;;;23.99;59.08;100833.14;1784659;79;21190;-51
2021/09/14 08:46:23;;;;;;;0.98;0.72;;;;;;;23.99;58.99;100835.34;1783401;78;21070;-50
2021/09/14 08:48:49;;;;;;;2.05;0.80;;;;;;;24.00;58.94;100834.77;1788251;78;20985;-50
2021/09/14 08:51:16;;;;;;;1.12;0.70;;;;;;;23.99;58.88;100834.53;1789476;78;21482;-52
2021/09/14 08:53:42;;;;;;;1.37;0.80;;;;;;;23.99;58.84;100831.75;1784187;79;21060;-51
2021/09/14 08:56:09;;;;;;;0.95;0.60;;;;;;;23.97;58.78;100832.68;1781675;79;21249;-48
2021/09/14 08:58:36;;;;;;;0.68;0.65;;;;;;;23.96;58.77;100827.70;1783885;79;21551;-52
2021/09/14 09:01:02;;;;;;;0.90;0.70;;;;;;;23.95;58.74;100826.06;1790968;78;21133;-49
2021/09/14 09:03:30;;;;;;;0.85;0.75;;;;;;;23.94;58.73;100823.61;1786018;79;20991;-53
2021/09/14 09:05:57;;;;;;;1.12;0.70;;;;;;;23.91;58.72;100825.12;1786266;79;21465;-48
2021/09/14 09:08:30;;;;;;;0.70;0.60;;;;;;;23.89;58.73;100821.84;1790097;79;21163;-51
2021/09/14 09:11:06;;;;;;;0.75;0.70;;;;;;;23.88;58.71;100818.86;1791003;78;21452;-52
2021/09/14 09:13:37;;;;;;;1.10;0.70;;;;;;;23.87;58.73;100814.45;1793354;78;21059;-51
2021/09/14 09:16:06;;;;;;;1.20;0.78;;;;;;;23.86;58.73;100816.16;1796296;78;21031;-52
2021/09/14 09:18:32;;;;;;;1.22;0.80;;;;;;;23.87;58.74;100817.22;1796308;78;21485;-54
2021/09/14 09:21:02;;;;;;;0.90;0.50;;;;;;;23.89;58.83;100814.91;1791767;78;22025;-50
2021/09/14 09:23:28;;;;;;;1.07;0.72;;;;;;;23.93;58.95;100819.23;1797057;78;24273;-53
2021/09/14 09:26:06;;;;;;;1.12;0.72;;;;;;;23.94;59.03;100819.45;1793916;78;21466;-52
2021/09/14 09:28:32;;;;;;;0.93;0.60;;;;;;;23.96;59.08;100819.94;1797169;78;21032;-50
2021/09/14 09:30:59;;;;;;;0.90;0.70;;;;;;;23.99;59.05;100812.30;1792934;78;20986;-52
2021/09/14 09:33:28;;;;;;;0.93;0.65;;;;;;;24.02;58.98;100817.16;1798879;78;21223;-53
2021/09/14 09:36:09;;;;;;;1.05;0.72;;;;;;;24.02;58.93;100813.81;1792702;78;20991;-52
2021/09/14 09:38:47;;;;;;;1.25;0.82;;;;;;;24.04;58.85;100812.09;1798880;78;21042;-51
2021/09/14 09:41:19;;;;;;;0.53;0.53;;;;;;;24.03;58.81;100807.11;1796813;78;21086;-51
2021/09/14 09:43:46;;;;;;;1.92;0.80;;;;;;;24.03;58.75;100807.11;1792511;78;21534;-50
2021/09/14 09:46:23;;;;;;;1.47;1.10;;;;;;;24.02;58.71;100807.44;1774587;79;21218;-49
2021/09/14 09:48:47;;;;;;;1.12;0.90;;;;;;;24.02;58.67;100806.05;1794195;78;21058;-52
2021/09/14 09:51:14;;;;;;;1.47;0.70;;;;;;;23.99;58.65;100802.00;1797284;79;21485;-48
2021/09/14 09:53:40;;;;;;;0.95;0.70;;;;;;;23.99;58.63;100802.57;1797876;78;21051;-49
2021/09/14 09:56:06;;;;;;;0.93;0.80;;;;;;;23.98;58.62;100799.55;1793673;78;21505;-49
2021/09/14 09:58:33;;;;;;;0.93;0.68;;;;;;;23.97;58.60;100800.72;1796158;78;23142;-51
2021/09/14 10:01:16;;;;;;;1.87;0.60;;;;;;;23.95;58.64;100794.11;1796181;78;21053;-50
2021/09/14 10:03:56;;;;;;;0.80;0.62;;;;;;;23.94;58.62;100795.25;1790436;78;21010;-52
2021/09/14 10:06:25;;;;;;;0.75;0.57;;;;;;;23.94;58.63;100795.83;1793586;78;21516;-49
2021/09/14 10:08:53;;;;;;;1.07;0.68;;;;;;;23.95;58.64;100792.72;1775955;79;21548;-51
2021/09/14 10:11:27;;;;;;;0.68;0.50;;;;;;;23.99;58.70;100792.84;1783631;79;21129;-51
2021/09/14 10:14:14;;;;;;;0.72;0.50;;;;;;;24.01;58.81;100792.76;1786778;79;21433;-51
2021/09/14 10:16:45;;;;;;;0.78;0.70;;;;;;;24.04;58.89;100794.03;1787133;78;21093;-48
2021/09/14 10:19:18;;;;;;;0.75;0.55;;;;;;;24.05;58.90;100781.77;1782511;79;21090;-52
2021/09/14 10:22:01;;;;;;;1.05;0.80;;;;;;;24.08;58.88;100789.41;1783646;79;21117;-51
2021/09/14 10:24:27;;;;;;;1.00;0.68;;;;;;;24.10;58.80;100784.34;1777017;79;23243;-52
2021/09/14 10:27:10;;;;;;;1.17;0.70;;;;;;;24.10;58.75;100776.78;1800221;78;21021;-49
2021/09/14 10:29:36;;;;;;;0.95;0.60;;;;;;;24.12;58.69;100780.05;1810854;78;20999;-51
2021/09/14 10:32:11;;;;;;;1.02;0.60;;;;;;;24.12;58.63;100770.32;1803767;78;21468;-52
2021/09/14 10:34:42;;;;;;;0.93;0.68;;;;;;;24.13;58.58;100768.36;1791511;78;20983;-51
2021/09/14 10:37:07;;;;;;;1.02;0.78;;;;;;;24.12;58.53;100770.89;1801696;78;21148;-51
2021/09/14 10:39:39;;;;;;;0.60;0.60;;;;;;;24.13;58.51;100771.14;1781563;78;21045;-52
2021/09/14 10:42:19;;;;;;;0.62;0.50;;;;;;;24.12;58.45;100768.11;1793951;78;21044;-52
2021/09/14 10:44:47;;;;;;;0.80;0.70;;;;;;;24.12;58.42;100763.95;1783006;79;21057;-52
2021/09/14 10:47:18;;;;;;;1.10;0.78;;;;;;;24.11;58.40;100763.13;1767213;79;21012;-51
2021/09/14 10:49:57;;;;;;;0.80;0.60;;;;;;;24.11;58.39;100760.92;1792264;78;22168;-53
2021/09/14 10:52:40;;;;;;;0.72;0.60;;;;;;;24.11;58.35;100759.53;1787325;78;21511;-51
2021/09/14 10:55:18;;;;;;;1.22;0.70;;;;;;;24.10;58.34;100760.71;1785220;78;21158;-51
2021/09/14 10:57:50;;;;;;;0.82;0.60;;;;;;;24.09;58.29;100759.08;1801986;78;21074;-53
2021/09/14 11:00:28;;;;;;;1.17;0.60;;;;;;;24.09;58.26;100757.69;1787125;79;21066;-51
2021/09/14 11:02:56;;;;;;;0.60;0.55;;;;;;;24.08;58.24;100761.05;1783039;79;23294;-51
2021/09/14 11:05:27;;;;;;;0.78;0.60;;;;;;;24.12;58.24;100759.20;1766901;79;20988;-52
2021/09/14 11:07:58;;;;;;;0.80;0.65;;;;;;;24.15;58.26;100752.16;1773259;79;21078;-52
2021/09/14 11:10:27;;;;;;;0.90;0.60;;;;;;;24.18;58.31;100747.33;1772718;77;21031;-54
2021/09/14 11:12:53;;;;;;;0.50;0.37;;;;;;;24.21;58.38;100755.55;1754917;79;21035;-54
2021/09/14 11:15:19;;;;;;;1.00;0.60;;;;;;;24.23;58.34;100748.48;1763961;79;22082;-52
2021/09/14 11:17:47;;;;;;;0.85;0.60;;;;;;;24.27;58.30;100743.88;1753140;80;20967;-52
2021/09/14 11:20:18;;;;;;;0.78;0.60;;;;;;;24.30;58.22;100743.76;1753600;80;21129;-53
2021/09/14 11:22:45;;;;;;;0.82;0.60;;;;;;;24.32;58.13;100741.44;1752445;80;21030;-54
2021/09/14 11:25:14;;;;;;;1.90;0.70;;;;;;;24.34;58.03;100737.74;1757688;80;21059;-51
2021/09/14 11:27:43;;;;;;;0.57;0.50;;;;;;;24.35;57.94;100740.19;1764612;80;21638;-52
2021/09/14 11:30:14;;;;;;;0.47;0.40;;;;;;;24.36;57.86;100730.67;1759779;79;21045;-51
2021/09/14 11:32:40;;;;;;;0.57;0.37;;;;;;;24.37;57.78;100734.27;1753515;80;21109;-53
2021/09/14 11:35:09;;;;;;;0.47;0.40;;;;;;;24.36;57.69;100732.06;1768377;80;20975;-52
2021/09/14 11:37:35;;;;;;;0.70;0.55;;;;;;;24.36;57.63;100734.02;1763823;80;21059;-49
2021/09/14 11:40:01;;;;;;;0.37;0.37;;;;;;;24.36;57.56;100729.28;1759991;79;22070;-52
2021/09/14 11:42:27;;;;;;;0.68;0.40;;;;;;;24.37;57.53;100732.88;1761132;80;21030;-51
2021/09/14 11:45:08;;;;;;;0.65;0.50;;;;;;;24.36;57.45;100726.50;1755939;80;21488;-52
2021/09/14 11:47:43;;;;;;;0.35;0.30;;;;;;;24.36;57.40;100727.89;1775828;79;21046;-52
2021/09/14 11:50:11;;;;;;;0.70;0.50;;;;;;;24.36;57.35;100722.90;1770797;79;21101;-51
2021/09/14 11:52:37;;;;;;;0.88;0.40;;;;;;;24.35;57.33;100727.67;1766363;80;21064;-53
2021/09/14 11:55:08;;;;;;;0.65;0.47;;;;;;;24.35;57.27;100724.08;1761902;80;21342;-53
2021/09/14 11:57:35;;;;;;;0.70;0.60;;;;;;;24.34;57.24;100722.45;1754819;80;21023;-52
2021/09/14 12:00:12;;;;;;;0.50;0.40;;;;;;;24.33;57.22;100721.63;1760533;80;21430;-52
2021/09/14 12:02:50;;;;;;;0.60;0.50;;;;;;;24.33;57.23;100719.42;1753455;80;21356;-54
2021/09/14 12:05:21;;;;;;;0.60;0.47;;;;;;;24.32;57.22;100717.22;1758235;80;21242;-51
2021/09/14 12:07:57;;;;;;;0.30;0.30;;;;;;;24.33;57.18;100719.42;1765322;80;21766;-54
2021/09/14 12:10:24;;;;;;;0.70;0.45;;;;;;;24.33;57.17;100715.26;1757095;80;21007;-53
2021/09/14 12:12:52;;;;;;;0.47;0.35;;;;;;;24.33;57.14;100716.65;1750950;80;21082;-51
2021/09/14 12:15:20;;;;;;;0.60;0.42;;;;;;;24.32;57.12;100710.27;1754088;80;21074;-52
2021/09/14 12:17:47;;;;;;;0.40;0.30;;;;;;;24.33;57.09;100709.13;1753476;80;22017;-54
2021/09/14 12:20:13;;;;;;;0.42;0.30;;;;;;;24.33;57.08;100716.08;1756071;80;21449;-51
2021/09/14 12:22:39;;;;;;;0.50;0.37;;;;;;;24.34;57.05;100709.94;1755822;80;20955;-53
2021/09/14 12:25:07;;;;;;;0.70;0.42;;;;;;;24.34;57.04;100701.59;1758406;80;20995;-51
2021/09/14 12:27:33;;;;;;;0.95;0.60;;;;;;;24.35;57.01;100703.23;1768686;80;21074;-53
2021/09/14 12:29:59;;;;;;;0.42;0.40;;;;;;;24.35;56.99;100694.31;1764954;80;21462;-52
2021/09/14 12:32:26;;;;;;;0.47;0.35;;;;;;;24.36;56.99;100697.30;1762720;80;20963;-53